createdAt,value
2022-09-16T00:00:02.039Z,16.47
2022-09-16T00:01:14.240Z,16.45
2022-09-16T00:02:18.335Z,16.45
2022-09-16T00:03:22.530Z,16.43
2022-09-16T00:04:26.524Z,16.42
2022-09-16T00:05:31.974Z,16.42
2022-09-16T00:06:36.189Z,16.40
2022-09-16T00:07:40.175Z,16.40
2022-09-16T00:08:44.225Z,16.40
2022-09-16T00:09:48.259Z,16.41
2022-09-16T00:10:52.259Z,16.41
2022-09-16T00:11:58.660Z,16.40
2022-09-16T00:13:03.206Z,16.38
2022-09-16T00:14:07.211Z,16.38
2022-09-16T00:15:11.668Z,16.37
2022-09-16T00:18:02.434Z,16.36
2022-09-16T00:19:06.733Z,16.36
2022-09-16T00:20:11.571Z,16.12
2022-09-16T00:21:15.487Z,16.35
2022-09-16T00:22:19.497Z,16.35
2022-09-16T00:23:23.498Z,16.35
2022-09-16T00:24:27.501Z,16.34
2022-09-16T00:25:35.721Z,16.33
2022-09-16T00:26:39.081Z,16.30
2022-09-16T00:27:43.065Z,16.30
2022-09-16T00:28:48.849Z,16.30
2022-09-16T00:29:52.863Z,16.29
2022-09-16T00:31:01.978Z,16.29
2022-09-16T00:32:06.053Z,16.29
2022-09-16T00:33:10.327Z,16.27
2022-09-16T00:34:14.256Z,16.26
2022-09-16T00:35:18.189Z,16.26
2022-09-16T00:36:23.466Z,16.24
2022-09-16T00:37:27.378Z,16.22
2022-09-16T00:38:31.308Z,16.20
2022-09-16T00:39:36.165Z,16.20
2022-09-16T00:40:50.529Z,16.20
2022-09-16T00:41:56.649Z,16.20
2022-09-16T00:43:00.683Z,16.20
2022-09-16T00:44:07.371Z,16.20
2022-09-16T00:45:20.086Z,16.18
2022-09-16T00:46:30.278Z,16.18
2022-09-16T00:47:43.567Z,16.19
2022-09-16T00:48:48.011Z,16.19
2022-09-16T00:49:54.814Z,16.19
2022-09-16T00:51:02.276Z,16.19
2022-09-16T00:52:07.525Z,16.18
2022-09-16T00:53:14.435Z,16.19
2022-09-16T00:54:20.687Z,16.17
2022-09-16T00:55:33.301Z,16.16
2022-09-16T00:56:40.219Z,16.15
2022-09-16T00:57:46.469Z,16.15
2022-09-16T00:58:55.905Z,16.14
2022-09-16T01:00:01.955Z,16.13
2022-09-16T01:01:06.255Z,16.13
2022-09-16T01:02:13.288Z,16.13
2022-09-16T01:03:19.460Z,16.11
2022-09-16T01:04:33.947Z,16.11
2022-09-16T01:05:39.847Z,16.09
2022-09-16T01:06:44.022Z,16.08
2022-09-16T01:07:58.549Z,16.09
2022-09-16T01:09:17.853Z,16.08
2022-09-16T01:10:22.026Z,16.09
2022-09-16T01:11:38.266Z,16.09
2022-09-16T01:13:11.784Z,16.09
2022-09-16T01:14:16.299Z,16.09
2022-09-16T01:32:04.537Z,15.82
2022-09-16T01:33:21.724Z,15.82
2022-09-16T01:34:43.603Z,15.80
2022-09-16T01:36:10.115Z,15.82
2022-09-16T01:37:35.086Z,15.81
2022-09-16T01:38:51.024Z,15.81
2022-09-16T01:40:15.301Z,15.83
2022-09-16T01:41:22.282Z,15.81
2022-09-16T01:44:08.841Z,15.93
2022-09-16T01:45:15.768Z,15.82
2022-09-16T01:46:38.681Z,15.82
2022-09-16T01:48:02.006Z,15.82
2022-09-16T01:49:18.037Z,15.81
2022-09-16T01:50:46.009Z,15.83
2022-09-16T01:51:55.673Z,15.81
2022-09-16T01:53:20.574Z,15.80
2022-09-16T01:54:36.262Z,15.79
2022-09-16T01:55:43.197Z,15.80
2022-09-16T01:56:56.189Z,15.80
2022-09-16T01:58:09.096Z,15.79
2022-09-16T01:59:28.019Z,15.79
2022-09-16T02:00:34.620Z,15.79
2022-09-16T02:01:44.338Z,15.78
2022-09-16T02:03:03.395Z,15.77
2022-09-16T02:04:10.449Z,15.77
2022-09-16T02:05:17.294Z,15.77
2022-09-16T02:06:24.355Z,15.78
2022-09-16T02:07:36.427Z,15.78
2022-09-16T02:08:48.741Z,15.76
2022-09-16T02:09:58.301Z,15.78
2022-09-16T02:11:05.555Z,15.78
2022-09-16T02:12:12.449Z,15.79
2022-09-16T02:13:25.327Z,15.79
2022-09-16T02:14:32.620Z,15.81
2022-09-16T02:15:39.157Z,15.81
2022-09-16T02:17:03.923Z,15.82
2022-09-16T02:18:10.610Z,15.82
2022-09-16T02:19:17.533Z,15.82
2022-09-16T02:20:26.111Z,15.81
2022-09-16T02:21:33.048Z,15.81
2022-09-16T02:22:45.680Z,15.81
2022-09-16T02:23:55.700Z,15.81
2022-09-16T02:25:02.563Z,15.82
2022-09-16T02:26:08.952Z,15.82
2022-09-16T02:27:18.736Z,15.80
2022-09-16T02:28:25.691Z,15.81
2022-09-16T02:29:35.336Z,15.82
2022-09-16T02:30:45.302Z,15.81
2022-09-16T02:31:55.600Z,15.81
2022-09-16T02:33:00.133Z,15.80
2022-09-16T02:34:07.071Z,15.81
2022-09-16T02:35:14.019Z,15.81
2022-09-16T02:36:20.908Z,15.81
2022-09-16T02:37:27.850Z,15.81
2022-09-16T02:38:37.570Z,15.81
2022-09-16T02:39:43.993Z,15.81
2022-09-16T02:40:53.500Z,15.81
2022-09-16T02:41:58.651Z,15.81
2022-09-16T02:43:03.242Z,15.81
2022-09-16T02:44:08.394Z,15.81
2022-09-16T02:45:13.171Z,15.81
2022-09-16T02:46:41.321Z,15.52
2022-09-16T02:48:00.390Z,15.52
2022-09-16T02:49:07.329Z,15.80
2022-09-16T02:50:17.484Z,15.79
2022-09-16T02:51:47.938Z,15.79
2022-09-16T02:53:06.522Z,15.75
2022-09-16T02:54:32.933Z,15.73
2022-09-16T02:55:57.837Z,15.72
2022-09-16T02:57:02.426Z,15.70
2022-09-16T02:58:07.726Z,15.68
2022-09-16T02:59:13.290Z,15.67
2022-09-16T03:00:18.940Z,15.66
2022-09-16T03:01:24.316Z,15.64
2022-09-16T03:02:28.519Z,15.64
2022-09-16T03:03:32.565Z,15.61
2022-09-16T03:04:36.977Z,15.60
2022-09-16T03:06:00.464Z,15.60
2022-09-16T03:07:07.739Z,15.60
2022-09-16T03:08:11.681Z,15.57
2022-09-16T03:09:17.779Z,15.55
2022-09-16T03:10:27.457Z,15.55
2022-09-16T03:11:46.387Z,15.48
2022-09-16T03:13:11.587Z,15.47
2022-09-16T03:14:18.277Z,15.47
2022-09-16T03:15:25.242Z,15.48
2022-09-16T03:16:41.542Z,15.45
2022-09-16T03:18:12.654Z,15.45
2022-09-16T03:19:31.427Z,15.44
2022-09-16T03:20:53.527Z,15.43
2022-09-16T03:22:17.063Z,15.43
2022-09-16T03:23:58.513Z,15.39
2022-09-16T03:25:20.365Z,15.36
2022-09-16T03:26:50.174Z,15.33
2022-09-16T03:27:59.824Z,15.34
2022-09-16T03:29:09.596Z,15.34
2022-09-16T03:30:14.891Z,15.33
2022-09-16T03:31:24.852Z,15.34
2022-09-16T03:32:34.363Z,15.34
2022-09-16T03:33:50.081Z,15.35
2022-09-16T03:34:59.973Z,15.36
2022-09-16T03:36:05.979Z,15.36
2022-09-16T03:37:13.018Z,15.37
2022-09-16T03:38:19.762Z,15.37
2022-09-16T03:39:24.257Z,15.36
2022-09-16T03:40:31.897Z,15.34
2022-09-16T03:41:37.208Z,15.34
2022-09-16T03:42:43.295Z,15.34
2022-09-16T03:43:55.050Z,15.32
2022-09-16T03:44:59.150Z,15.32
2022-09-16T03:46:03.585Z,15.32
2022-09-16T03:47:08.993Z,15.30
2022-09-16T03:48:13.845Z,15.29
2022-09-16T03:49:18.226Z,15.27
2022-09-16T03:50:23.736Z,15.26
2022-09-16T03:51:28.000Z,15.26
2022-09-16T03:52:32.007Z,15.25
2022-09-16T03:53:35.939Z,15.25
2022-09-16T03:54:40.020Z,15.24
2022-09-16T03:55:43.920Z,15.24
2022-09-16T03:56:47.966Z,15.24
2022-09-16T03:57:54.336Z,15.24
2022-09-16T03:58:58.973Z,15.25
2022-09-16T04:00:04.665Z,15.25
2022-09-16T04:01:08.762Z,15.24
2022-09-16T04:02:12.777Z,15.24
2022-09-16T04:03:16.861Z,15.24
2022-09-16T04:04:20.860Z,15.21
2022-09-16T04:05:24.824Z,15.21
2022-09-16T04:06:29.849Z,15.21
2022-09-16T04:07:34.174Z,15.22
2022-09-16T04:09:49.256Z,15.20
2022-09-16T04:10:58.892Z,15.22
2022-09-16T04:12:03.650Z,15.19
2022-09-16T04:13:07.570Z,15.19
2022-09-16T04:14:11.953Z,15.18
2022-09-16T04:15:15.987Z,15.18
2022-09-16T04:16:21.955Z,15.18
2022-09-16T04:17:26.282Z,15.18
2022-09-16T04:18:32.307Z,15.19
2022-09-16T04:19:36.320Z,15.20
2022-09-16T04:20:40.833Z,15.21
2022-09-16T04:21:44.961Z,15.21
2022-09-16T04:22:48.903Z,15.22
2022-09-16T04:23:53.254Z,15.22
2022-09-16T04:24:57.775Z,15.22
2022-09-16T04:26:03.308Z,15.22
2022-09-16T04:27:07.385Z,15.23
2022-09-16T04:28:11.356Z,15.23
2022-09-16T04:29:15.433Z,15.22
2022-09-16T04:30:19.885Z,15.23
2022-09-16T04:31:23.840Z,15.25
2022-09-16T04:32:27.904Z,15.24
2022-09-16T04:33:33.783Z,15.24
2022-09-16T04:34:37.756Z,15.24
2022-09-16T04:35:41.700Z,15.24
2022-09-16T04:36:45.831Z,15.24
2022-09-16T04:37:50.230Z,15.26
2022-09-16T04:38:54.366Z,15.26
2022-09-16T04:40:04.385Z,15.26
2022-09-16T04:41:14.422Z,15.28
2022-09-16T04:42:18.486Z,15.30
2022-09-16T04:43:22.500Z,15.31
2022-09-16T04:44:26.520Z,15.33
2022-09-16T04:45:30.524Z,15.34
2022-09-16T04:46:34.522Z,15.35
2022-09-16T04:47:38.596Z,15.36
2022-09-16T04:48:42.555Z,15.38
2022-09-16T04:49:46.546Z,15.40
2022-09-16T04:50:50.575Z,15.42
2022-09-16T04:51:54.511Z,15.43
2022-09-16T04:52:58.483Z,15.45
2022-09-16T04:54:02.412Z,15.47
2022-09-16T04:55:06.632Z,15.47
2022-09-16T04:56:16.770Z,15.51
2022-09-16T04:57:22.000Z,15.57
2022-09-16T04:58:25.935Z,15.57
2022-09-16T04:59:29.940Z,15.60
2022-09-16T05:00:35.440Z,15.63
2022-09-16T05:01:42.682Z,15.63
2022-09-16T05:02:46.077Z,15.64
2022-09-16T05:03:52.355Z,15.68
2022-09-16T05:04:56.279Z,15.68
2022-09-16T05:06:10.787Z,15.69
2022-09-16T05:07:14.781Z,15.69
2022-09-16T05:08:18.779Z,15.68
2022-09-16T05:09:24.869Z,15.68
2022-09-16T05:10:31.429Z,15.69
2022-09-16T05:11:37.598Z,15.69
2022-09-16T05:12:41.583Z,15.69
2022-09-16T05:13:46.167Z,15.69
2022-09-16T05:14:50.106Z,15.74
2022-09-16T05:15:54.083Z,15.76
2022-09-16T05:16:58.393Z,15.76
2022-09-16T05:18:02.341Z,15.78
2022-09-16T05:19:06.435Z,15.83
2022-09-16T05:20:11.012Z,15.83
2022-09-16T05:21:19.623Z,15.83
2022-09-16T05:22:24.001Z,15.85
2022-09-16T05:23:28.592Z,15.87
2022-09-16T05:24:34.810Z,15.91
2022-09-16T05:25:38.751Z,15.92
2022-09-16T05:26:44.026Z,15.97
2022-09-16T05:27:49.067Z,15.97
2022-09-16T05:28:54.079Z,16.00
2022-09-16T05:29:58.106Z,16.04
2022-09-16T05:31:11.434Z,16.06
2022-09-16T05:32:17.771Z,16.06
2022-09-16T05:33:21.743Z,16.13
2022-09-16T05:34:25.722Z,16.15
2022-09-16T05:35:29.736Z,16.17
2022-09-16T05:36:38.377Z,16.20
2022-09-16T05:37:42.001Z,16.26
2022-09-16T05:39:04.704Z,16.26
2022-09-16T05:39:51.734Z,16.30
2022-09-16T05:41:00.864Z,16.42
2022-09-16T05:42:06.341Z,16.49
2022-09-16T05:43:10.258Z,16.49
2022-09-16T05:44:17.328Z,16.59
2022-09-16T05:45:25.717Z,16.68
2022-09-16T05:46:29.290Z,16.73
2022-09-16T05:47:33.269Z,16.78
2022-09-16T05:48:37.187Z,16.87
2022-09-16T05:49:43.864Z,16.92
2022-09-16T05:51:03.045Z,16.97
2022-09-16T05:52:06.886Z,16.97
2022-09-16T05:53:10.840Z,17.07
2022-09-16T05:54:14.783Z,17.11
2022-09-16T05:55:18.844Z,17.14
2022-09-16T05:56:26.543Z,17.14
2022-09-16T05:57:30.414Z,17.19
2022-09-16T05:58:40.653Z,17.19
2022-09-16T05:59:46.285Z,17.21
2022-09-16T06:00:50.603Z,17.22
2022-09-16T06:01:56.117Z,17.23
2022-09-16T06:03:00.116Z,17.23
2022-09-16T06:04:06.678Z,17.25
2022-09-16T06:05:10.587Z,17.23
2022-09-16T06:06:23.573Z,17.25
2022-09-16T06:07:27.510Z,17.25
2022-09-16T06:08:33.364Z,17.26
2022-09-16T06:09:37.304Z,17.26
2022-09-16T06:10:41.970Z,17.27
2022-09-16T06:11:48.704Z,17.26
2022-09-16T06:12:52.641Z,17.26
2022-09-16T06:13:58.956Z,17.26
2022-09-16T06:15:02.895Z,17.25
2022-09-16T06:16:09.068Z,17.25
2022-09-16T06:17:13.098Z,17.25
2022-09-16T06:18:17.955Z,17.27
2022-09-16T06:19:23.591Z,17.31
2022-09-16T06:20:29.325Z,17.34
2022-09-16T06:21:33.624Z,17.34
2022-09-16T06:22:37.609Z,17.38
2022-09-16T06:23:41.532Z,17.44
2022-09-16T06:24:45.482Z,17.46
2022-09-16T06:25:49.743Z,17.50
2022-09-16T06:26:53.790Z,17.51
2022-09-16T06:27:57.729Z,17.56
2022-09-16T06:29:01.785Z,17.63
2022-09-16T06:30:06.168Z,17.71
2022-09-16T06:31:13.226Z,17.78
2022-09-16T06:32:18.772Z,17.78
2022-09-16T06:33:22.728Z,17.91
2022-09-16T06:34:27.530Z,17.97
2022-09-16T06:35:31.652Z,17.97
2022-09-16T06:36:42.620Z,18.02
2022-09-16T06:37:43.994Z,18.05
2022-09-16T06:38:48.660Z,18.07
2022-09-16T06:39:52.723Z,18.09
2022-09-16T06:40:59.073Z,18.07
2022-09-16T06:42:04.719Z,18.05
2022-09-16T06:43:11.352Z,18.06
2022-09-16T06:44:17.377Z,18.05
2022-09-16T06:45:22.895Z,18.05
2022-09-16T06:46:29.056Z,18.05
2022-09-16T06:47:33.532Z,18.07
2022-09-16T06:48:37.546Z,18.07
2022-09-16T06:49:41.511Z,18.07
2022-09-16T06:50:45.552Z,18.08
2022-09-16T06:51:49.624Z,18.08
2022-09-16T06:52:53.630Z,18.09
2022-09-16T06:54:03.148Z,18.12
2022-09-16T06:55:09.084Z,18.10
2022-09-16T06:56:15.972Z,18.10
2022-09-16T06:57:20.632Z,18.08
2022-09-16T06:58:24.584Z,18.05
2022-09-16T06:59:28.544Z,18.05
2022-09-16T07:00:32.689Z,18.01
2022-09-16T07:01:37.089Z,18.01
2022-09-16T07:02:41.136Z,18.00
2022-09-16T07:03:50.402Z,18.04
2022-09-16T07:04:56.107Z,18.07
2022-09-16T07:06:01.928Z,18.07
2022-09-16T07:07:09.498Z,18.07
2022-09-16T07:08:11.606Z,18.07
2022-09-16T07:09:15.639Z,18.07
2022-09-16T07:10:21.155Z,18.07
2022-09-16T07:11:27.074Z,18.08
2022-09-16T07:12:35.583Z,18.22
2022-09-16T07:13:38.370Z,18.31
2022-09-16T07:14:42.403Z,18.40
2022-09-16T07:16:09.328Z,18.46
2022-09-16T07:16:58.367Z,18.55
2022-09-16T07:18:02.492Z,18.63
2022-09-16T07:19:08.173Z,18.74
2022-09-16T07:20:18.563Z,18.78
2022-09-16T07:21:24.000Z,18.83
2022-09-16T07:22:31.299Z,18.83
2022-09-16T07:23:37.042Z,18.87
2022-09-16T07:24:41.018Z,18.87
2022-09-16T07:25:47.864Z,18.86
2022-09-16T07:26:53.051Z,18.93
2022-09-16T07:27:56.681Z,18.96
2022-09-16T07:29:03.203Z,18.98
2022-09-16T07:30:18.907Z,18.98
2022-09-16T07:32:09.981Z,18.99
2022-09-16T07:32:30.252Z,19.00
2022-09-16T07:33:39.475Z,19.00
2022-09-16T07:34:43.418Z,19.01
2022-09-16T07:35:47.369Z,19.01
2022-09-16T07:36:53.010Z,19.04
2022-09-16T07:37:57.008Z,19.04
2022-09-16T07:39:04.913Z,19.14
2022-09-16T07:40:11.964Z,19.14
2022-09-16T07:41:21.665Z,19.20
2022-09-16T07:42:25.647Z,19.15
2022-09-16T07:43:29.584Z,19.15
2022-09-16T07:44:33.645Z,19.15
2022-09-16T07:45:37.640Z,19.17
2022-09-16T07:46:42.713Z,19.20
2022-09-16T07:47:49.672Z,19.17
2022-09-16T07:48:54.093Z,19.12
2022-09-16T07:49:58.067Z,19.13
2022-09-16T07:51:08.256Z,19.13
2022-09-16T07:52:12.165Z,19.13
2022-09-16T07:53:16.092Z,19.12
2022-09-16T07:54:20.187Z,19.12
2022-09-16T07:55:24.166Z,19.15
2022-09-16T07:56:30.734Z,19.19
2022-09-16T07:57:34.658Z,19.21
2022-09-16T07:58:39.016Z,19.22
2022-09-16T07:59:42.926Z,19.24
2022-09-16T08:00:49.101Z,19.23
2022-09-16T08:01:53.207Z,19.23
2022-09-16T08:02:57.994Z,19.28
2022-09-16T08:04:03.758Z,19.31
2022-09-16T08:05:08.409Z,19.31
2022-09-16T08:06:17.028Z,19.36
2022-09-16T08:07:21.026Z,19.36
2022-09-16T08:08:26.691Z,19.42
2022-09-16T08:09:41.022Z,19.46
2022-09-16T08:10:37.869Z,19.49
2022-09-16T08:11:41.894Z,19.52
2022-09-16T08:12:48.242Z,19.54
2022-09-16T08:13:52.216Z,19.53
2022-09-16T08:14:56.098Z,19.53
2022-09-16T08:16:06.169Z,19.48
2022-09-16T08:17:11.789Z,19.52
2022-09-16T08:18:15.834Z,19.55
2022-09-16T08:19:24.848Z,19.55
2022-09-16T08:20:59.461Z,19.62
2022-09-16T08:21:56.388Z,19.63
2022-09-16T08:22:49.137Z,19.63
2022-09-16T08:24:21.453Z,19.70
2022-09-16T08:25:08.508Z,19.74
2022-09-16T08:26:14.909Z,19.77
2022-09-16T08:27:21.429Z,19.77
2022-09-16T08:28:57.457Z,19.76
2022-09-16T08:29:34.936Z,19.77
2022-09-16T08:30:38.955Z,19.82
2022-09-16T08:31:44.508Z,19.83
2022-09-16T08:32:48.540Z,19.80
2022-09-16T08:33:52.561Z,19.78
2022-09-16T08:34:56.638Z,19.58
2022-09-16T08:36:06.849Z,19.58
2022-09-16T08:37:10.897Z,19.78
2022-09-16T08:38:14.885Z,19.78
2022-09-16T08:39:21.244Z,19.77
2022-09-16T08:40:34.831Z,19.79
2022-09-16T08:41:53.429Z,19.93
2022-09-16T08:43:00.372Z,20.01
2022-09-16T08:44:31.350Z,20.17
2022-09-16T08:45:50.416Z,20.30
2022-09-16T08:46:57.498Z,20.30
2022-09-16T08:48:24.075Z,20.40
2022-09-16T08:49:34.037Z,20.48
2022-09-16T08:50:48.983Z,20.52
2022-09-16T08:51:54.505Z,20.59
2022-09-16T08:53:02.833Z,20.63
2022-09-16T08:54:15.876Z,20.67
2022-09-16T08:55:22.950Z,20.75
2022-09-16T08:56:30.134Z,20.85
2022-09-16T08:57:37.250Z,20.95
2022-09-16T08:58:44.329Z,20.95
2022-09-16T08:59:51.386Z,21.13
2022-09-16T09:00:59.117Z,21.17
2022-09-16T09:02:38.363Z,21.13
2022-09-16T09:03:46.003Z,20.94
2022-09-16T09:04:50.314Z,20.94
2022-09-16T09:05:58.981Z,20.85
2022-09-16T09:07:06.094Z,20.79
2022-09-16T09:08:28.156Z,20.74
2022-09-16T09:09:53.007Z,20.73
2022-09-16T09:11:00.189Z,20.74
2022-09-16T09:12:14.152Z,20.71
2022-09-16T09:13:39.573Z,20.71
2022-09-16T09:14:53.973Z,20.57
2022-09-16T09:16:12.861Z,20.59
2022-09-16T09:17:26.087Z,20.51
2022-09-16T09:18:48.147Z,20.54
2022-09-16T09:19:56.754Z,20.54
2022-09-16T09:21:06.687Z,20.52
2022-09-16T09:22:31.790Z,20.53
2022-09-16T09:23:44.759Z,20.53
2022-09-16T09:25:13.427Z,20.61
2022-09-16T09:26:22.851Z,20.66
2022-09-16T09:27:44.625Z,20.66
2022-09-16T09:29:13.679Z,20.76
2022-09-16T09:30:24.518Z,20.86
2022-09-16T09:31:46.559Z,20.93
2022-09-16T09:33:44.465Z,21.00
2022-09-16T09:34:41.953Z,21.00
2022-09-16T09:35:55.080Z,21.10
2022-09-16T09:37:27.859Z,21.12
2022-09-16T09:38:40.471Z,21.12
2022-09-16T09:39:56.234Z,21.14
2022-09-16T09:41:03.385Z,21.11
2022-09-16T09:42:19.227Z,21.09
2022-09-16T09:43:29.269Z,21.09
2022-09-16T09:44:59.869Z,21.09
2022-09-16T09:46:11.960Z,21.12
2022-09-16T09:47:19.056Z,21.21
2022-09-16T09:48:28.806Z,21.21
2022-09-16T09:49:35.925Z,21.30
2022-09-16T09:50:51.447Z,21.30
2022-09-16T09:52:04.522Z,21.33
2022-09-16T09:53:32.557Z,21.36
2022-09-16T09:54:38.934Z,21.41
2022-09-16T09:55:50.861Z,21.38
2022-09-16T09:57:03.370Z,21.38
2022-09-16T09:58:27.881Z,21.39
2022-09-16T09:59:31.650Z,21.36
2022-09-16T10:00:47.778Z,21.42
2022-09-16T10:01:57.142Z,21.42
2022-09-16T10:03:22.666Z,21.40
2022-09-16T10:04:29.294Z,21.40
2022-09-16T10:05:32.896Z,21.48
2022-09-16T10:06:37.599Z,21.44
2022-09-16T10:09:20.653Z,21.35
2022-09-16T10:10:26.653Z,20.98
2022-09-16T10:11:32.560Z,21.18
2022-09-16T10:12:37.321Z,21.20
2022-09-16T10:13:50.203Z,21.20
2022-09-16T10:14:54.214Z,21.23
2022-09-16T10:16:10.502Z,21.28
2022-09-16T10:17:19.438Z,21.28
2022-09-16T10:18:31.796Z,21.29
2022-09-16T10:19:38.769Z,21.29
2022-09-16T10:20:46.955Z,21.33
2022-09-16T10:21:54.766Z,21.24
2022-09-16T10:23:05.082Z,21.26
2022-09-16T10:24:23.701Z,21.25
2022-09-16T10:25:28.282Z,21.25
2022-09-16T10:26:35.233Z,21.25
2022-09-16T10:27:39.998Z,21.25
2022-09-16T10:28:55.802Z,21.27
2022-09-16T10:30:14.479Z,21.27
2022-09-16T10:31:19.114Z,21.30
2022-09-16T10:32:23.290Z,21.35
2022-09-16T10:33:33.168Z,21.36
2022-09-16T10:34:48.171Z,21.36
2022-09-16T10:36:09.840Z,21.39
2022-09-16T10:37:18.417Z,21.48
2022-09-16T10:38:25.319Z,21.48
2022-09-16T10:39:31.509Z,21.48
2022-09-16T10:40:38.479Z,21.51
2022-09-16T10:41:44.871Z,21.51
2022-09-16T10:42:52.280Z,21.45
2022-09-16T10:44:03.475Z,21.47
2022-09-16T10:45:25.623Z,21.53
2022-09-16T10:46:31.550Z,21.56
2022-09-16T10:47:35.796Z,21.58
2022-09-16T10:48:44.014Z,21.56
2022-09-16T10:49:54.124Z,21.49
2022-09-16T10:51:05.432Z,21.49
2022-09-16T10:52:17.790Z,21.49
2022-09-16T10:53:44.429Z,21.49
2022-09-16T10:54:48.979Z,21.46
2022-09-16T10:56:02.062Z,21.46
2022-09-16T10:57:28.447Z,21.44
2022-09-16T10:58:32.646Z,21.44
2022-09-16T10:59:36.610Z,21.44
2022-09-16T11:00:45.875Z,21.43
2022-09-16T11:02:11.799Z,21.44
2022-09-16T11:03:52.122Z,21.54
2022-09-16T11:05:16.995Z,21.61
2022-09-16T11:06:35.952Z,21.61
2022-09-16T11:07:50.877Z,21.70
2022-09-16T11:09:14.490Z,21.72
2022-09-16T11:10:40.001Z,21.77
2022-09-16T11:11:51.347Z,21.77
2022-09-16T11:13:19.440Z,21.75
2022-09-16T11:14:29.165Z,21.73
2022-09-16T11:15:42.084Z,21.72
2022-09-16T11:16:52.231Z,21.65
2022-09-16T11:18:14.322Z,21.65
2022-09-16T11:19:36.080Z,21.64
2022-09-16T11:20:58.085Z,21.64
2022-09-16T11:22:29.418Z,21.65
2022-09-16T11:23:53.897Z,21.69
2022-09-16T11:25:09.438Z,21.74
2022-09-16T11:26:32.607Z,21.79
2022-09-16T11:27:57.891Z,21.85
2022-09-16T11:29:16.598Z,21.85
2022-09-16T11:30:22.645Z,21.86
2022-09-16T11:31:55.181Z,21.91
2022-09-16T11:33:08.066Z,21.91
2022-09-16T11:34:31.442Z,21.91
2022-09-16T11:35:58.147Z,21.87
2022-09-16T11:37:14.342Z,21.87
2022-09-16T11:38:22.939Z,21.83
2022-09-16T11:39:46.400Z,21.80
2022-09-16T11:41:02.391Z,21.80
2022-09-16T11:42:44.299Z,21.82
2022-09-16T11:44:24.277Z,21.82
2022-09-16T11:45:51.539Z,21.81
2022-09-16T11:47:10.416Z,21.55
2022-09-16T11:48:35.245Z,21.55
2022-09-16T11:49:42.363Z,21.72
2022-09-16T11:51:04.503Z,21.70
2022-09-16T11:52:26.285Z,21.70
2022-09-16T11:53:44.300Z,21.78
2022-09-16T11:55:02.651Z,21.84
2022-09-16T11:56:16.038Z,21.91
2022-09-16T11:57:23.145Z,21.91
2022-09-16T11:58:51.236Z,22.06
2022-09-16T11:59:58.365Z,22.06
2022-09-16T12:01:32.907Z,22.11
2022-09-16T12:02:40.141Z,22.13
2022-09-16T12:03:47.317Z,22.13
2022-09-16T12:05:08.643Z,22.13
2022-09-16T12:06:20.125Z,22.18
2022-09-16T12:07:27.269Z,22.20
2022-09-16T12:08:49.062Z,22.21
2022-09-16T12:09:56.078Z,22.25
2022-09-16T12:11:03.323Z,22.27
2022-09-16T12:12:16.045Z,22.27
2022-09-16T12:13:26.076Z,22.27
2022-09-16T12:14:33.170Z,22.30
2022-09-16T12:15:53.676Z,22.26
2022-09-16T12:17:05.747Z,22.21
2022-09-16T12:18:21.530Z,22.21
2022-09-16T12:19:31.355Z,22.17
2022-09-16T12:20:41.234Z,22.16
2022-09-16T12:22:06.178Z,22.16
2022-09-16T12:23:21.932Z,22.14
2022-09-16T12:24:31.774Z,22.07
2022-09-16T12:25:45.962Z,22.04
2022-09-16T12:26:50.449Z,22.04
2022-09-16T12:28:04.697Z,22.05
2022-09-16T12:29:40.514Z,21.95
2022-09-16T12:30:47.701Z,21.98
2022-09-16T12:31:54.860Z,21.98
2022-09-16T12:33:22.994Z,21.97
2022-09-16T12:34:39.045Z,21.97
2022-09-16T12:35:54.503Z,22.01
2022-09-16T12:37:25.611Z,22.03
2022-09-16T12:38:29.970Z,22.03
2022-09-16T12:39:34.008Z,22.04
2022-09-16T12:40:50.448Z,21.81
2022-09-16T12:42:15.360Z,21.81
2022-09-16T12:43:40.408Z,21.92
2022-09-16T12:45:07.020Z,21.91
2022-09-16T12:46:16.726Z,21.93
2022-09-16T12:47:38.729Z,21.92
2022-09-16T12:49:21.962Z,21.93
2022-09-16T12:50:53.419Z,21.93
2022-09-16T12:52:01.691Z,21.93
2022-09-16T12:53:24.859Z,21.93
2022-09-16T12:55:06.794Z,21.96
2022-09-16T12:56:11.296Z,21.94
2022-09-16T12:57:18.510Z,21.90
2022-09-16T12:58:31.589Z,21.82
2022-09-16T13:01:49.857Z,20.42
2022-09-16T13:02:57.130Z,20.42
2022-09-16T13:04:04.211Z,21.37
2022-09-16T13:05:18.769Z,21.39
2022-09-16T13:06:38.680Z,21.39
2022-09-16T13:07:42.184Z,21.39
2022-09-16T13:09:04.519Z,21.38
2022-09-16T13:10:14.432Z,21.40
2022-09-16T13:12:31.423Z,21.43
2022-09-16T13:12:54.803Z,21.51
2022-09-16T13:14:00.485Z,21.57
2022-09-16T13:15:06.699Z,21.59
2022-09-16T13:16:11.264Z,21.59
2022-09-16T13:17:18.382Z,21.63
2022-09-16T13:18:25.495Z,21.60
2022-09-16T13:19:47.339Z,21.65
2022-09-16T13:20:59.610Z,21.67
2022-09-16T13:22:15.582Z,21.64
2022-09-16T13:23:22.615Z,21.62
2022-09-16T13:24:38.425Z,21.62
2022-09-16T13:26:00.316Z,21.65
2022-09-16T13:27:22.243Z,21.63
2022-09-16T13:28:43.722Z,21.62
2022-09-16T13:29:47.764Z,21.62
2022-09-16T13:30:52.071Z,21.62
2022-09-16T13:33:04.441Z,21.65
2022-09-16T13:34:18.728Z,21.73
2022-09-16T13:35:40.830Z,21.75
2022-09-16T13:36:45.444Z,21.75
2022-09-16T13:37:52.219Z,21.81
2022-09-16T13:38:59.181Z,21.84
2022-09-16T13:40:20.765Z,21.84
2022-09-16T13:41:39.503Z,21.84
2022-09-16T13:44:54.933Z,21.71
2022-09-16T13:46:04.948Z,21.71
2022-09-16T13:47:14.657Z,21.61
2022-09-16T13:48:21.165Z,21.61
2022-09-16T13:49:27.711Z,21.26
2022-09-16T13:50:34.296Z,21.55
2022-09-16T13:51:47.315Z,21.52
2022-09-16T13:52:51.321Z,21.52
2022-09-16T13:53:56.753Z,21.47
2022-09-16T13:55:10.548Z,21.41
2022-09-16T13:56:27.302Z,21.35
2022-09-16T13:57:40.325Z,21.32
2022-09-16T13:58:53.125Z,21.22
2022-09-16T14:00:23.799Z,21.22
2022-09-16T14:01:48.946Z,21.18
2022-09-16T14:03:03.275Z,21.18
2022-09-16T14:04:12.784Z,21.11
2022-09-16T14:05:21.301Z,21.07
2022-09-16T14:06:47.745Z,21.04
2022-09-16T14:08:12.723Z,20.99
2022-09-16T14:09:41.763Z,20.95
2022-09-16T14:11:04.483Z,20.94
2022-09-16T14:12:23.371Z,20.94
2022-09-16T14:13:32.905Z,20.80
2022-09-16T14:14:53.167Z,20.80
2022-09-16T14:15:49.218Z,20.77
2022-09-16T14:16:55.504Z,20.72
2022-09-16T14:18:02.252Z,20.67
2022-09-16T14:19:14.975Z,20.65
2022-09-16T14:20:22.105Z,20.55
2022-09-16T14:21:26.857Z,20.53
2022-09-16T14:22:30.848Z,20.51
2022-09-16T14:23:34.919Z,20.51
2022-09-16T14:24:46.030Z,20.48
2022-09-16T14:25:51.193Z,20.48
2022-09-16T14:26:59.217Z,20.46
2022-09-16T14:28:13.042Z,20.46
2022-09-16T14:29:17.040Z,20.48
2022-09-16T14:30:21.129Z,20.49
2022-09-16T14:31:28.110Z,20.53
2022-09-16T14:32:35.799Z,20.53
2022-09-16T14:33:42.925Z,20.55
2022-09-16T14:35:03.476Z,20.61
2022-09-16T14:36:05.492Z,20.67
2022-09-16T14:37:13.897Z,20.69
2022-09-16T14:38:44.234Z,20.71
2022-09-16T14:39:29.655Z,20.71
2022-09-16T14:40:33.963Z,20.68
2022-09-16T14:41:46.792Z,20.68
2022-09-16T14:43:02.345Z,20.64
2022-09-16T14:44:12.580Z,20.57
2022-09-16T14:45:17.978Z,20.52
2022-09-16T14:46:22.937Z,20.48
2022-09-16T14:47:56.829Z,20.48
2022-09-16T14:49:04.485Z,20.39
2022-09-16T14:50:13.014Z,20.34
2022-09-16T14:51:22.688Z,20.33
2022-09-16T14:52:29.311Z,20.30
2022-09-16T14:53:36.492Z,20.27
2022-09-16T14:54:43.573Z,20.24
2022-09-16T14:55:49.581Z,20.22
2022-09-16T14:57:02.259Z,20.22
2022-09-16T14:58:09.815Z,20.17
2022-09-16T14:59:15.432Z,20.15
2022-09-16T15:00:20.310Z,20.11
2022-09-16T15:01:28.301Z,20.03
2022-09-16T15:02:38.207Z,19.99
2022-09-16T15:03:57.154Z,19.96
2022-09-16T15:05:09.846Z,19.93
2022-09-16T15:06:18.423Z,19.93
2022-09-16T15:07:30.875Z,19.88
2022-09-16T15:08:37.849Z,19.85
2022-09-16T15:10:01.201Z,19.77
2022-09-16T15:11:30.058Z,19.75
2022-09-16T15:12:43.758Z,19.70
2022-09-16T15:13:48.272Z,19.65
2022-09-16T15:14:53.003Z,19.65
2022-09-16T15:16:00.071Z,19.56
2022-09-16T15:17:04.978Z,19.53
2022-09-16T15:18:12.043Z,19.51
2022-09-16T15:19:28.039Z,19.48
2022-09-16T15:20:35.223Z,19.46
2022-09-16T15:21:41.371Z,19.44
2022-09-16T15:22:45.487Z,19.40
2022-09-16T15:23:55.104Z,19.37
2022-09-16T15:25:00.733Z,19.34
2022-09-16T15:26:22.406Z,19.34
2022-09-16T15:27:31.120Z,14.86
2022-09-16T15:28:37.760Z,19.24
2022-09-16T15:29:50.602Z,19.22